sensor_id;sensor_type;location;lat;lon;timestamp;temperature;humidity
15900;DHT22;8048;50.644;6.184;2023-04-09T00:01:49;6.70;99.90
15900;DHT22;8048;50.644;6.184;2023-04-09T00:04:15;6.70;99.90
15900;DHT22;8048;50.644;6.184;2023-04-09T00:06:40;6.60;99.90
15900;DHT22;8048;50.644;6.184;2023-04-09T00:09:06;6.60;99.90
15900;DHT22;8048;50.644;6.184;2023-04-09T00:11:31;6.50;99.90
15900;DHT22;8048;50.644;6.184;2023-04-09T00:13:57;6.50;99.90
15900;DHT22;8048;50.644;6.184;2023-04-09T00:16:23;6.40;99.90
15900;DHT22;8048;50.644;6.184;2023-04-09T00:18:48;6.30;99.90
15900;DHT22;8048;50.644;6.184;2023-04-09T00:21:14;6.20;99.90
15900;DHT22;8048;50.644;6.184;2023-04-09T00:23:41;6.20;99.90
15900;DHT22;8048;50.644;6.184;2023-04-09T00:26:07;6.10;99.90
15900;DHT22;8048;50.644;6.184;2023-04-09T00:28:33;6.10;99.90
15900;DHT22;8048;50.644;6.184;2023-04-09T00:30:58;6.00;99.90
15900;DHT22;8048;50.644;6.184;2023-04-09T00:33:24;5.90;99.90
15900;DHT22;8048;50.644;6.184;2023-04-09T00:35:50;5.90;99.90
15900;DHT22;8048;50.644;6.184;2023-04-09T00:38:15;5.80;99.90
15900;DHT22;8048;50.644;6.184;2023-04-09T00:40:41;5.70;99.90
15900;DHT22;8048;50.644;6.184;2023-04-09T00:43:06;5.70;99.90
15900;DHT22;8048;50.644;6.184;2023-04-09T00:45:32;5.60;99.90
15900;DHT22;8048;50.644;6.184;2023-04-09T00:47:58;5.50;99.90
15900;DHT22;8048;50.644;6.184;2023-04-09T00:50:23;5.40;99.90
15900;DHT22;8048;50.644;6.184;2023-04-09T00:52:49;5.30;99.90
15900;DHT22;8048;50.644;6.184;2023-04-09T00:55:15;5.30;99.90
15900;DHT22;8048;50.644;6.184;2023-04-09T00:57:42;5.20;99.90
15900;DHT22;8048;50.644;6.184;2023-04-09T01:00:08;5.20;99.90
15900;DHT22;8048;50.644;6.184;2023-04-09T01:02:35;5.10;99.90
15900;DHT22;8048;50.644;6.184;2023-04-09T01:05:01;5.10;99.90
15900;DHT22;8048;50.644;6.184;2023-04-09T01:08:07;5.10;99.90
15900;DHT22;8048;50.644;6.184;2023-04-09T01:13:43;4.80;99.90
15900;DHT22;8048;50.644;6.184;2023-04-09T01:16:14;4.70;99.90
15900;DHT22;8048;50.644;6.184;2023-04-09T01:18:47;4.70;99.90
15900;DHT22;8048;50.644;6.184;2023-04-09T01:21:18;4.60;99.90
15900;DHT22;8048;50.644;6.184;2023-04-09T01:26:44;4.40;99.90
15900;DHT22;8048;50.644;6.184;2023-04-09T01:29:19;4.30;99.90
15900;DHT22;8048;50.644;6.184;2023-04-09T01:31:45;4.40;99.90
15900;DHT22;8048;50.644;6.184;2023-04-09T01:34:12;4.30;99.90
15900;DHT22;8048;50.644;6.184;2023-04-09T01:36:39;4.30;99.90
15900;DHT22;8048;50.644;6.184;2023-04-09T01:39:06;4.30;99.90
15900;DHT22;8048;50.644;6.184;2023-04-09T01:41:33;4.20;99.90
15900;DHT22;8048;50.644;6.184;2023-04-09T01:44:01;4.20;99.90
15900;DHT22;8048;50.644;6.184;2023-04-09T01:46:28;4.20;99.90
15900;DHT22;8048;50.644;6.184;2023-04-09T01:48:54;4.20;99.90
15900;DHT22;8048;50.644;6.184;2023-04-09T01:51:20;4.10;99.90
15900;DHT22;8048;50.644;6.184;2023-04-09T01:53:47;4.10;99.90
15900;DHT22;8048;50.644;6.184;2023-04-09T01:56:12;4.10;99.90
15900;DHT22;8048;50.644;6.184;2023-04-09T01:58:38;4.10;99.90
15900;DHT22;8048;50.644;6.184;2023-04-09T02:01:28;4.00;99.90
15900;DHT22;8048;50.644;6.184;2023-04-09T02:04:01;4.00;99.90
15900;DHT22;8048;50.644;6.184;2023-04-09T02:06:35;4.00;99.90
15900;DHT22;8048;50.644;6.184;2023-04-09T02:09:07;4.00;99.90
15900;DHT22;8048;50.644;6.184;2023-04-09T02:11:36;4.00;99.90
15900;DHT22;8048;50.644;6.184;2023-04-09T02:14:03;3.90;99.90
15900;DHT22;8048;50.644;6.184;2023-04-09T02:16:30;3.90;99.90
15900;DHT22;8048;50.644;6.184;2023-04-09T02:18:56;3.80;99.90
15900;DHT22;8048;50.644;6.184;2023-04-09T02:21:22;3.80;99.90
15900;DHT22;8048;50.644;6.184;2023-04-09T02:23:49;3.80;99.90
15900;DHT22;8048;50.644;6.184;2023-04-09T02:26:14;3.80;99.90
15900;DHT22;8048;50.644;6.184;2023-04-09T02:28:40;3.70;99.90
15900;DHT22;8048;50.644;6.184;2023-04-09T02:31:05;3.70;99.90
15900;DHT22;8048;50.644;6.184;2023-04-09T02:33:31;3.70;99.90
15900;DHT22;8048;50.644;6.184;2023-04-09T02:35:56;3.60;99.90
15900;DHT22;8048;50.644;6.184;2023-04-09T02:38:23;3.60;99.90
15900;DHT22;8048;50.644;6.184;2023-04-09T02:40:48;3.60;99.90
15900;DHT22;8048;50.644;6.184;2023-04-09T02:43:14;3.50;99.90
15900;DHT22;8048;50.644;6.184;2023-04-09T02:45:39;3.50;99.90
15900;DHT22;8048;50.644;6.184;2023-04-09T02:48:05;3.50;99.90
15900;DHT22;8048;50.644;6.184;2023-04-09T02:50:30;3.50;99.90
15900;DHT22;8048;50.644;6.184;2023-04-09T02:52:56;3.40;99.90
15900;DHT22;8048;50.644;6.184;2023-04-09T02:55:21;3.40;99.90
15900;DHT22;8048;50.644;6.184;2023-04-09T02:57:47;3.40;99.90
15900;DHT22;8048;50.644;6.184;2023-04-09T03:00:13;3.40;99.90
15900;DHT22;8048;50.644;6.184;2023-04-09T03:02:38;3.40;99.90
15900;DHT22;8048;50.644;6.184;2023-04-09T03:05:04;3.40;99.90
15900;DHT22;8048;50.644;6.184;2023-04-09T03:07:30;3.30;99.90
15900;DHT22;8048;50.644;6.184;2023-04-09T03:09:55;3.30;99.90
15900;DHT22;8048;50.644;6.184;2023-04-09T03:12:21;3.30;99.90
15900;DHT22;8048;50.644;6.184;2023-04-09T03:14:46;3.30;99.90
15900;DHT22;8048;50.644;6.184;2023-04-09T03:17:12;3.20;99.90
15900;DHT22;8048;50.644;6.184;2023-04-09T03:19:38;3.20;99.90
15900;DHT22;8048;50.644;6.184;2023-04-09T03:22:03;3.20;99.90
15900;DHT22;8048;50.644;6.184;2023-04-09T03:24:31;3.20;99.90
15900;DHT22;8048;50.644;6.184;2023-04-09T03:26:56;3.30;99.90
15900;DHT22;8048;50.644;6.184;2023-04-09T03:29:22;3.30;99.90
15900;DHT22;8048;50.644;6.184;2023-04-09T03:31:47;3.30;99.90
15900;DHT22;8048;50.644;6.184;2023-04-09T03:34:13;3.30;99.90
15900;DHT22;8048;50.644;6.184;2023-04-09T03:36:39;3.30;99.90
15900;DHT22;8048;50.644;6.184;2023-04-09T03:39:04;3.30;99.90
15900;DHT22;8048;50.644;6.184;2023-04-09T03:41:30;3.40;99.90
15900;DHT22;8048;50.644;6.184;2023-04-09T03:43:55;3.40;99.90
15900;DHT22;8048;50.644;6.184;2023-04-09T03:46:21;3.40;99.90
15900;DHT22;8048;50.644;6.184;2023-04-09T03:48:46;3.40;99.90
15900;DHT22;8048;50.644;6.184;2023-04-09T03:51:13;3.50;99.90
15900;DHT22;8048;50.644;6.184;2023-04-09T03:53:40;3.50;99.90
15900;DHT22;8048;50.644;6.184;2023-04-09T03:56:06;3.50;99.90
15900;DHT22;8048;50.644;6.184;2023-04-09T03:58:32;3.60;99.90
15900;DHT22;8048;50.644;6.184;2023-04-09T04:00:58;3.60;99.90
15900;DHT22;8048;50.644;6.184;2023-04-09T04:03:23;3.60;99.90
15900;DHT22;8048;50.644;6.184;2023-04-09T04:05:49;3.60;99.90
15900;DHT22;8048;50.644;6.184;2023-04-09T04:08:15;3.60;99.90
15900;DHT22;8048;50.644;6.184;2023-04-09T04:10:40;3.60;99.90
15900;DHT22;8048;50.644;6.184;2023-04-09T04:13:06;3.70;99.90
15900;DHT22;8048;50.644;6.184;2023-04-09T04:15:39;3.70;99.90
15900;DHT22;8048;50.644;6.184;2023-04-09T04:18:08;3.70;99.90
15900;DHT22;8048;50.644;6.184;2023-04-09T04:20:37;3.80;99.90
15900;DHT22;8048;50.644;6.184;2023-04-09T04:23:03;3.80;99.90
15900;DHT22;8048;50.644;6.184;2023-04-09T04:25:29;3.80;99.90
15900;DHT22;8048;50.644;6.184;2023-04-09T04:27:55;3.80;99.90
15900;DHT22;8048;50.644;6.184;2023-04-09T04:30:21;3.80;99.90
15900;DHT22;8048;50.644;6.184;2023-04-09T04:32:47;3.90;99.90
15900;DHT22;8048;50.644;6.184;2023-04-09T04:35:13;3.80;99.90
15900;DHT22;8048;50.644;6.184;2023-04-09T04:37:38;3.90;99.90
15900;DHT22;8048;50.644;6.184;2023-04-09T04:40:05;3.90;99.90
15900;DHT22;8048;50.644;6.184;2023-04-09T04:42:31;3.90;99.90
15900;DHT22;8048;50.644;6.184;2023-04-09T04:44:56;4.00;99.90
15900;DHT22;8048;50.644;6.184;2023-04-09T04:47:25;4.00;99.90
15900;DHT22;8048;50.644;6.184;2023-04-09T04:49:51;3.90;99.90
15900;DHT22;8048;50.644;6.184;2023-04-09T04:52:16;3.90;99.90
15900;DHT22;8048;50.644;6.184;2023-04-09T04:54:42;3.80;99.90
15900;DHT22;8048;50.644;6.184;2023-04-09T04:57:08;3.90;99.90
15900;DHT22;8048;50.644;6.184;2023-04-09T04:59:36;3.90;99.90
15900;DHT22;8048;50.644;6.184;2023-04-09T05:02:03;3.90;99.90
15900;DHT22;8048;50.644;6.184;2023-04-09T05:04:28;3.90;99.90
15900;DHT22;8048;50.644;6.184;2023-04-09T05:06:57;3.90;99.90
15900;DHT22;8048;50.644;6.184;2023-04-09T05:09:22;3.90;99.90
15900;DHT22;8048;50.644;6.184;2023-04-09T05:11:48;3.80;99.90
15900;DHT22;8048;50.644;6.184;2023-04-09T05:14:13;3.80;99.90
15900;DHT22;8048;50.644;6.184;2023-04-09T05:16:39;3.80;99.90
15900;DHT22;8048;50.644;6.184;2023-04-09T05:19:05;3.80;99.90
15900;DHT22;8048;50.644;6.184;2023-04-09T05:21:30;3.80;99.90
15900;DHT22;8048;50.644;6.184;2023-04-09T05:23:56;3.70;99.90
15900;DHT22;8048;50.644;6.184;2023-04-09T05:26:22;3.70;99.90
15900;DHT22;8048;50.644;6.184;2023-04-09T05:28:48;3.80;99.90
15900;DHT22;8048;50.644;6.184;2023-04-09T05:31:14;3.70;99.90
15900;DHT22;8048;50.644;6.184;2023-04-09T05:33:40;3.70;99.90
15900;DHT22;8048;50.644;6.184;2023-04-09T05:36:06;3.70;99.90
15900;DHT22;8048;50.644;6.184;2023-04-09T05:38:32;3.80;99.90
15900;DHT22;8048;50.644;6.184;2023-04-09T05:40:58;3.70;99.90
15900;DHT22;8048;50.644;6.184;2023-04-09T05:43:24;3.70;99.90
15900;DHT22;8048;50.644;6.184;2023-04-09T05:45:50;3.70;99.90
15900;DHT22;8048;50.644;6.184;2023-04-09T05:48:15;3.70;99.90
15900;DHT22;8048;50.644;6.184;2023-04-09T05:50:48;3.70;99.90
15900;DHT22;8048;50.644;6.184;2023-04-09T05:53:15;3.70;99.90
15900;DHT22;8048;50.644;6.184;2023-04-09T05:55:40;3.80;99.90
15900;DHT22;8048;50.644;6.184;2023-04-09T05:58:06;3.90;99.90
15900;DHT22;8048;50.644;6.184;2023-04-09T06:00:31;4.00;99.90
15900;DHT22;8048;50.644;6.184;2023-04-09T06:02:57;4.10;99.90
15900;DHT22;8048;50.644;6.184;2023-04-09T06:05:22;4.30;99.90
15900;DHT22;8048;50.644;6.184;2023-04-09T06:07:48;4.30;99.90
15900;DHT22;8048;50.644;6.184;2023-04-09T06:10:14;4.50;99.90
15900;DHT22;8048;50.644;6.184;2023-04-09T06:12:39;4.60;99.90
15900;DHT22;8048;50.644;6.184;2023-04-09T06:15:05;4.60;99.90
15900;DHT22;8048;50.644;6.184;2023-04-09T06:17:31;4.80;99.90
15900;DHT22;8048;50.644;6.184;2023-04-09T06:19:56;4.90;99.90
15900;DHT22;8048;50.644;6.184;2023-04-09T06:22:22;5.20;99.90
15900;DHT22;8048;50.644;6.184;2023-04-09T06:24:47;5.30;99.90
15900;DHT22;8048;50.644;6.184;2023-04-09T06:27:13;5.40;99.90
15900;DHT22;8048;50.644;6.184;2023-04-09T06:29:38;5.50;99.90
15900;DHT22;8048;50.644;6.184;2023-04-09T06:32:04;5.60;99.90
15900;DHT22;8048;50.644;6.184;2023-04-09T06:34:30;5.60;99.90
15900;DHT22;8048;50.644;6.184;2023-04-09T06:36:55;5.70;99.90
15900;DHT22;8048;50.644;6.184;2023-04-09T06:39:21;5.70;99.90
15900;DHT22;8048;50.644;6.184;2023-04-09T06:41:47;5.80;99.90
15900;DHT22;8048;50.644;6.184;2023-04-09T06:44:12;5.80;99.90
15900;DHT22;8048;50.644;6.184;2023-04-09T06:46:38;5.90;99.90
15900;DHT22;8048;50.644;6.184;2023-04-09T06:49:04;5.90;99.90
15900;DHT22;8048;50.644;6.184;2023-04-09T06:51:30;6.00;99.90
15900;DHT22;8048;50.644;6.184;2023-04-09T06:53:56;6.00;99.90
15900;DHT22;8048;50.644;6.184;2023-04-09T06:56:21;6.00;99.90
15900;DHT22;8048;50.644;6.184;2023-04-09T06:58:47;6.10;99.90
15900;DHT22;8048;50.644;6.184;2023-04-09T07:01:12;6.20;99.90
15900;DHT22;8048;50.644;6.184;2023-04-09T07:03:38;6.30;99.90
15900;DHT22;8048;50.644;6.184;2023-04-09T07:06:04;6.40;99.90
15900;DHT22;8048;50.644;6.184;2023-04-09T07:08:29;6.50;99.90
15900;DHT22;8048;50.644;6.184;2023-04-09T07:10:55;6.60;99.90
15900;DHT22;8048;50.644;6.184;2023-04-09T07:13:21;6.60;99.90
15900;DHT22;8048;50.644;6.184;2023-04-09T07:15:46;6.70;99.90
15900;DHT22;8048;50.644;6.184;2023-04-09T07:18:12;6.80;99.90
15900;DHT22;8048;50.644;6.184;2023-04-09T07:20:37;7.00;99.90
15900;DHT22;8048;50.644;6.184;2023-04-09T07:23:03;7.10;99.90
15900;DHT22;8048;50.644;6.184;2023-04-09T07:25:28;7.20;99.90
15900;DHT22;8048;50.644;6.184;2023-04-09T07:27:54;7.40;99.90
15900;DHT22;8048;50.644;6.184;2023-04-09T07:30:20;7.60;99.90
15900;DHT22;8048;50.644;6.184;2023-04-09T07:32:45;7.70;99.90
15900;DHT22;8048;50.644;6.184;2023-04-09T07:35:11;7.80;99.90
15900;DHT22;8048;50.644;6.184;2023-04-09T07:37:37;7.90;99.90
15900;DHT22;8048;50.644;6.184;2023-04-09T07:40:02;8.10;99.70
15900;DHT22;8048;50.644;6.184;2023-04-09T07:42:29;8.20;98.90
15900;DHT22;8048;50.644;6.184;2023-04-09T07:44:55;8.30;97.80
15900;DHT22;8048;50.644;6.184;2023-04-09T07:47:22;8.50;97.70
15900;DHT22;8048;50.644;6.184;2023-04-09T07:49:48;8.70;97.40
15900;DHT22;8048;50.644;6.184;2023-04-09T07:52:13;8.90;96.90
15900;DHT22;8048;50.644;6.184;2023-04-09T07:54:39;9.10;95.70
15900;DHT22;8048;50.644;6.184;2023-04-09T07:57:05;9.20;94.80
15900;DHT22;8048;50.644;6.184;2023-04-09T07:59:31;9.20;94.20
15900;DHT22;8048;50.644;6.184;2023-04-09T08:01:57;9.30;95.40
15900;DHT22;8048;50.644;6.184;2023-04-09T08:04:23;9.40;94.90
15900;DHT22;8048;50.644;6.184;2023-04-09T08:06:48;9.50;94.70
15900;DHT22;8048;50.644;6.184;2023-04-09T08:09:19;9.60;95.10
15900;DHT22;8048;50.644;6.184;2023-04-09T08:11:46;9.70;94.60
15900;DHT22;8048;50.644;6.184;2023-04-09T08:14:12;9.70;94.20
15900;DHT22;8048;50.644;6.184;2023-04-09T08:16:39;9.70;94.20
15900;DHT22;8048;50.644;6.184;2023-04-09T08:19:05;9.80;94.20
15900;DHT22;8048;50.644;6.184;2023-04-09T08:21:31;9.80;93.80
15900;DHT22;8048;50.644;6.184;2023-04-09T08:23:56;10.00;92.30
15900;DHT22;8048;50.644;6.184;2023-04-09T08:26:25;10.20;92.50
15900;DHT22;8048;50.644;6.184;2023-04-09T08:28:51;10.40;92.00
15900;DHT22;8048;50.644;6.184;2023-04-09T08:31:16;10.60;91.30
15900;DHT22;8048;50.644;6.184;2023-04-09T08:33:42;10.70;90.20
15900;DHT22;8048;50.644;6.184;2023-04-09T08:36:08;10.70;90.20
15900;DHT22;8048;50.644;6.184;2023-04-09T08:38:35;10.60;89.90
15900;DHT22;8048;50.644;6.184;2023-04-09T08:41:01;10.60;90.30
15900;DHT22;8048;50.644;6.184;2023-04-09T08:43:27;10.70;90.10
15900;DHT22;8048;50.644;6.184;2023-04-09T08:45:53;10.70;89.70
15900;DHT22;8048;50.644;6.184;2023-04-09T08:48:23;10.80;89.60
15900;DHT22;8048;50.644;6.184;2023-04-09T08:50:49;10.90;87.90
15900;DHT22;8048;50.644;6.184;2023-04-09T08:53:16;11.10;86.50
15900;DHT22;8048;50.644;6.184;2023-04-09T08:55:45;11.30;88.30
15900;DHT22;8048;50.644;6.184;2023-04-09T08:58:11;11.50;88.00
15900;DHT22;8048;50.644;6.184;2023-04-09T09:00:37;11.60;87.50
15900;DHT22;8048;50.644;6.184;2023-04-09T09:03:08;11.70;84.80
15900;DHT22;8048;50.644;6.184;2023-04-09T09:05:51;11.70;84.30
15900;DHT22;8048;50.644;6.184;2023-04-09T09:08:24;11.60;84.60
15900;DHT22;8048;50.644;6.184;2023-04-09T09:10:50;11.70;85.00
15900;DHT22;8048;50.644;6.184;2023-04-09T09:13:24;11.70;86.00
15900;DHT22;8048;50.644;6.184;2023-04-09T09:15:52;11.80;84.70
15900;DHT22;8048;50.644;6.184;2023-04-09T09:18:36;12.10;85.30
15900;DHT22;8048;50.644;6.184;2023-04-09T09:21:11;12.50;82.70
15900;DHT22;8048;50.644;6.184;2023-04-09T09:23:37;12.40;84.40
15900;DHT22;8048;50.644;6.184;2023-04-09T09:26:13;12.40;85.10
15900;DHT22;8048;50.644;6.184;2023-04-09T09:28:41;12.90;86.20
15900;DHT22;8048;50.644;6.184;2023-04-09T09:31:07;13.30;87.00
15900;DHT22;8048;50.644;6.184;2023-04-09T09:33:33;13.60;83.60
15900;DHT22;8048;50.644;6.184;2023-04-09T09:35:58;13.80;83.60
15900;DHT22;8048;50.644;6.184;2023-04-09T09:38:24;14.30;83.90
15900;DHT22;8048;50.644;6.184;2023-04-09T09:40:49;14.80;87.00
15900;DHT22;8048;50.644;6.184;2023-04-09T09:43:16;15.00;82.10
15900;DHT22;8048;50.644;6.184;2023-04-09T09:45:43;15.40;82.40
15900;DHT22;8048;50.644;6.184;2023-04-09T09:48:11;15.70;82.30
15900;DHT22;8048;50.644;6.184;2023-04-09T09:50:40;16.30;86.20
15900;DHT22;8048;50.644;6.184;2023-04-09T09:53:07;16.70;79.70
15900;DHT22;8048;50.644;6.184;2023-04-09T09:55:37;16.90;77.30
15900;DHT22;8048;50.644;6.184;2023-04-09T09:58:11;16.80;75.50
15900;DHT22;8048;50.644;6.184;2023-04-09T10:00:40;16.60;76.70
15900;DHT22;8048;50.644;6.184;2023-04-09T10:03:13;16.40;78.60
15900;DHT22;8048;50.644;6.184;2023-04-09T10:05:40;16.40;77.20
15900;DHT22;8048;50.644;6.184;2023-04-09T10:08:06;16.40;69.80
15900;DHT22;8048;50.644;6.184;2023-04-09T10:10:32;16.60;76.70
15900;DHT22;8048;50.644;6.184;2023-04-09T10:12:58;16.70;76.90
15900;DHT22;8048;50.644;6.184;2023-04-09T10:15:26;16.60;74.30
15900;DHT22;8048;50.644;6.184;2023-04-09T10:17:53;16.30;73.40
15900;DHT22;8048;50.644;6.184;2023-04-09T10:20:27;16.20;72.80
15900;DHT22;8048;50.644;6.184;2023-04-09T10:22:55;16.20;74.70
15900;DHT22;8048;50.644;6.184;2023-04-09T10:25:21;16.30;74.80
15900;DHT22;8048;50.644;6.184;2023-04-09T10:27:59;16.50;75.30
15900;DHT22;8048;50.644;6.184;2023-04-09T10:30:34;16.10;67.30
15900;DHT22;8048;50.644;6.184;2023-04-09T10:33:09;15.70;71.70
15900;DHT22;8048;50.644;6.184;2023-04-09T10:35:36;15.30;70.50
15900;DHT22;8048;50.644;6.184;2023-04-09T10:38:01;15.40;72.50
15900;DHT22;8048;50.644;6.184;2023-04-09T10:40:27;15.30;74.10
15900;DHT22;8048;50.644;6.184;2023-04-09T10:42:54;15.40;75.00
15900;DHT22;8048;50.644;6.184;2023-04-09T10:45:20;15.70;69.90
15900;DHT22;8048;50.644;6.184;2023-04-09T10:47:49;15.70;72.40
15900;DHT22;8048;50.644;6.184;2023-04-09T10:50:20;16.20;78.60
15900;DHT22;8048;50.644;6.184;2023-04-09T10:52:46;16.70;78.30
15900;DHT22;8048;50.644;6.184;2023-04-09T10:58:06;17.50;76.90
15900;DHT22;8048;50.644;6.184;2023-04-09T11:00:36;17.70;67.90
15900;DHT22;8048;50.644;6.184;2023-04-09T11:03:10;18.30;80.10
15900;DHT22;8048;50.644;6.184;2023-04-09T11:05:38;18.20;65.40
15900;DHT22;8048;50.644;6.184;2023-04-09T11:08:07;18.00;66.00
15900;DHT22;8048;50.644;6.184;2023-04-09T11:10:35;17.80;66.50
15900;DHT22;8048;50.644;6.184;2023-04-09T11:13:01;18.30;66.80
15900;DHT22;8048;50.644;6.184;2023-04-09T11:15:27;18.40;66.40
15900;DHT22;8048;50.644;6.184;2023-04-09T11:17:53;18.80;65.30
15900;DHT22;8048;50.644;6.184;2023-04-09T11:20:21;18.80;64.90
15900;DHT22;8048;50.644;6.184;2023-04-09T11:22:51;19.00;74.10
15900;DHT22;8048;50.644;6.184;2023-04-09T11:25:21;19.70;75.70
15900;DHT22;8048;50.644;6.184;2023-04-09T11:27:47;20.20;63.60
15900;DHT22;8048;50.644;6.184;2023-04-09T11:30:13;20.50;67.30
15900;DHT22;8048;50.644;6.184;2023-04-09T11:32:39;20.30;65.10
15900;DHT22;8048;50.644;6.184;2023-04-09T11:35:10;21.00;73.00
15900;DHT22;8048;50.644;6.184;2023-04-09T11:37:37;21.10;61.70
15900;DHT22;8048;50.644;6.184;2023-04-09T11:40:03;20.80;58.70
15900;DHT22;8048;50.644;6.184;2023-04-09T11:42:30;20.00;57.30
15900;DHT22;8048;50.644;6.184;2023-04-09T11:44:56;19.20;57.50
15900;DHT22;8048;50.644;6.184;2023-04-09T11:47:22;18.70;59.50
15900;DHT22;8048;50.644;6.184;2023-04-09T11:49:48;18.70;66.40
15900;DHT22;8048;50.644;6.184;2023-04-09T11:52:14;19.10;70.60
15900;DHT22;8048;50.644;6.184;2023-04-09T11:54:47;19.40;62.70
15900;DHT22;8048;50.644;6.184;2023-04-09T11:57:13;18.90;61.80
15900;DHT22;8048;50.644;6.184;2023-04-09T11:59:39;19.00;68.20
15900;DHT22;8048;50.644;6.184;2023-04-09T12:02:06;19.00;61.10
15900;DHT22;8048;50.644;6.184;2023-04-09T12:04:32;19.50;67.40
15900;DHT22;8048;50.644;6.184;2023-04-09T12:06:57;19.80;64.40
15900;DHT22;8048;50.644;6.184;2023-04-09T12:09:23;19.90;65.30
15900;DHT22;8048;50.644;6.184;2023-04-09T12:11:49;20.50;68.40
15900;DHT22;8048;50.644;6.184;2023-04-09T12:14:15;21.00;71.10
15900;DHT22;8048;50.644;6.184;2023-04-09T12:16:42;21.30;65.70
15900;DHT22;8048;50.644;6.184;2023-04-09T12:19:12;21.80;69.00
15900;DHT22;8048;50.644;6.184;2023-04-09T12:21:48;22.00;62.50
15900;DHT22;8048;50.644;6.184;2023-04-09T12:24:15;22.70;68.90
15900;DHT22;8048;50.644;6.184;2023-04-09T12:26:42;23.20;65.20
15900;DHT22;8048;50.644;6.184;2023-04-09T12:29:07;23.20;59.60
15900;DHT22;8048;50.644;6.184;2023-04-09T12:31:33;23.10;59.00
15900;DHT22;8048;50.644;6.184;2023-04-09T12:33:58;23.20;66.10
15900;DHT22;8048;50.644;6.184;2023-04-09T12:36:24;23.20;61.50
15900;DHT22;8048;50.644;6.184;2023-04-09T12:38:50;23.00;58.20
15900;DHT22;8048;50.644;6.184;2023-04-09T12:41:16;22.40;55.10
15900;DHT22;8048;50.644;6.184;2023-04-09T12:43:41;22.20;57.10
15900;DHT22;8048;50.644;6.184;2023-04-09T12:46:11;22.00;59.70
15900;DHT22;8048;50.644;6.184;2023-04-09T12:48:37;22.20;57.50
15900;DHT22;8048;50.644;6.184;2023-04-09T12:51:03;22.10;57.80
15900;DHT22;8048;50.644;6.184;2023-04-09T12:53:28;21.90;56.80
15900;DHT22;8048;50.644;6.184;2023-04-09T12:55:54;21.70;59.80
15900;DHT22;8048;50.644;6.184;2023-04-09T12:58:20;21.30;56.80
15900;DHT22;8048;50.644;6.184;2023-04-09T13:00:45;20.80;54.50
15900;DHT22;8048;50.644;6.184;2023-04-09T13:03:11;20.40;56.30
15900;DHT22;8048;50.644;6.184;2023-04-09T13:05:36;20.20;57.90
15900;DHT22;8048;50.644;6.184;2023-04-09T13:08:02;20.20;57.30
15900;DHT22;8048;50.644;6.184;2023-04-09T13:10:29;20.20;58.40
15900;DHT22;8048;50.644;6.184;2023-04-09T13:12:55;19.80;55.60
15900;DHT22;8048;50.644;6.184;2023-04-09T13:15:21;19.90;59.00
15900;DHT22;8048;50.644;6.184;2023-04-09T13:17:47;19.80;60.20
15900;DHT22;8048;50.644;6.184;2023-04-09T13:20:12;19.80;57.80
15900;DHT22;8048;50.644;6.184;2023-04-09T13:22:38;19.70;57.70
15900;DHT22;8048;50.644;6.184;2023-04-09T13:25:04;19.70;59.00
15900;DHT22;8048;50.644;6.184;2023-04-09T13:27:30;19.80;59.30
15900;DHT22;8048;50.644;6.184;2023-04-09T13:29:55;19.90;61.00
15900;DHT22;8048;50.644;6.184;2023-04-09T13:32:21;19.90;56.50
15900;DHT22;8048;50.644;6.184;2023-04-09T13:34:48;20.20;58.80
15900;DHT22;8048;50.644;6.184;2023-04-09T13:37:14;20.90;57.80
15900;DHT22;8048;50.644;6.184;2023-04-09T13:39:40;20.80;56.70
15900;DHT22;8048;50.644;6.184;2023-04-09T13:42:05;20.60;56.80
15900;DHT22;8048;50.644;6.184;2023-04-09T13:44:31;20.50;58.00
15900;DHT22;8048;50.644;6.184;2023-04-09T13:46:57;20.30;57.40
15900;DHT22;8048;50.644;6.184;2023-04-09T13:49:22;20.20;58.00
15900;DHT22;8048;50.644;6.184;2023-04-09T13:51:48;20.20;58.00
15900;DHT22;8048;50.644;6.184;2023-04-09T13:54:15;20.20;59.50
15900;DHT22;8048;50.644;6.184;2023-04-09T13:56:43;20.30;59.20
15900;DHT22;8048;50.644;6.184;2023-04-09T13:59:08;20.20;57.80
15900;DHT22;8048;50.644;6.184;2023-04-09T14:01:34;20.20;57.40
15900;DHT22;8048;50.644;6.184;2023-04-09T14:04:00;20.20;57.70
15900;DHT22;8048;50.644;6.184;2023-04-09T14:06:26;20.10;56.90
15900;DHT22;8048;50.644;6.184;2023-04-09T14:08:52;20.00;57.80
15900;DHT22;8048;50.644;6.184;2023-04-09T14:11:17;19.90;57.90
15900;DHT22;8048;50.644;6.184;2023-04-09T14:13:43;19.80;58.10
15900;DHT22;8048;50.644;6.184;2023-04-09T14:16:08;19.60;57.30
15900;DHT22;8048;50.644;6.184;2023-04-09T14:18:34;20.40;61.30
15900;DHT22;8048;50.644;6.184;2023-04-09T14:21:00;21.10;59.20
15900;DHT22;8048;50.644;6.184;2023-04-09T14:23:25;21.40;58.30
15900;DHT22;8048;50.644;6.184;2023-04-09T14:25:51;21.20;56.90
15900;DHT22;8048;50.644;6.184;2023-04-09T14:28:18;21.20;54.30
15900;DHT22;8048;50.644;6.184;2023-04-09T14:30:43;20.90;55.30
15900;DHT22;8048;50.644;6.184;2023-04-09T14:33:09;20.80;57.50
15900;DHT22;8048;50.644;6.184;2023-04-09T14:35:34;20.60;55.40
15900;DHT22;8048;50.644;6.184;2023-04-09T14:38:00;19.80;53.10
15900;DHT22;8048;50.644;6.184;2023-04-09T14:40:29;19.20;56.00
15900;DHT22;8048;50.644;6.184;2023-04-09T14:42:56;19.00;57.90
15900;DHT22;8048;50.644;6.184;2023-04-09T14:45:22;19.00;58.60
15900;DHT22;8048;50.644;6.184;2023-04-09T14:47:47;19.00;59.50
15900;DHT22;8048;50.644;6.184;2023-04-09T14:50:13;18.90;58.60
15900;DHT22;8048;50.644;6.184;2023-04-09T14:52:38;18.90;59.80
15900;DHT22;8048;50.644;6.184;2023-04-09T14:55:04;18.80;58.20
15900;DHT22;8048;50.644;6.184;2023-04-09T14:57:33;18.80;60.40
15900;DHT22;8048;50.644;6.184;2023-04-09T14:59:58;18.70;59.80
15900;DHT22;8048;50.644;6.184;2023-04-09T15:02:24;18.70;58.90
15900;DHT22;8048;50.644;6.184;2023-04-09T15:04:49;18.60;60.00
15900;DHT22;8048;50.644;6.184;2023-04-09T15:07:15;18.50;58.80
15900;DHT22;8048;50.644;6.184;2023-04-09T15:09:41;18.50;60.10
15900;DHT22;8048;50.644;6.184;2023-04-09T15:12:06;18.40;58.80
15900;DHT22;8048;50.644;6.184;2023-04-09T15:14:33;18.30;56.80
15900;DHT22;8048;50.644;6.184;2023-04-09T15:16:59;18.20;57.70
15900;DHT22;8048;50.644;6.184;2023-04-09T15:19:24;18.00;59.10
15900;DHT22;8048;50.644;6.184;2023-04-09T15:21:50;17.80;59.00
15900;DHT22;8048;50.644;6.184;2023-04-09T15:24:15;17.80;59.30
15900;DHT22;8048;50.644;6.184;2023-04-09T15:26:41;17.70;59.30
15900;DHT22;8048;50.644;6.184;2023-04-09T15:29:07;17.70;59.30
15900;DHT22;8048;50.644;6.184;2023-04-09T15:31:33;17.70;63.40
15900;DHT22;8048;50.644;6.184;2023-04-09T15:33:58;17.60;58.20
15900;DHT22;8048;50.644;6.184;2023-04-09T15:36:25;17.40;57.00
15900;DHT22;8048;50.644;6.184;2023-04-09T15:38:54;17.30;57.70
15900;DHT22;8048;50.644;6.184;2023-04-09T15:41:19;17.20;58.30
15900;DHT22;8048;50.644;6.184;2023-04-09T15:43:51;17.10;59.30
15900;DHT22;8048;50.644;6.184;2023-04-09T15:46:16;17.10;61.80
15900;DHT22;8048;50.644;6.184;2023-04-09T15:48:43;17.20;61.90
15900;DHT22;8048;50.644;6.184;2023-04-09T15:51:08;17.30;63.70
15900;DHT22;8048;50.644;6.184;2023-04-09T15:53:34;17.40;59.90
15900;DHT22;8048;50.644;6.184;2023-04-09T15:55:59;17.50;59.50
15900;DHT22;8048;50.644;6.184;2023-04-09T15:58:25;17.90;59.60
15900;DHT22;8048;50.644;6.184;2023-04-09T16:00:51;18.20;59.70